Impacts TAF Board
For situational awareness. Not to be used for flight planning purposes.
IDs:

KBDR - Bridgeport/Sikorsky, CT, US

Issued at 0830 UTC 23 Jun 2021
Updated at 1106 UTC 23 Jun 2021
Potential Impact None Slight Moderate High
Time1052Z 23/12Z 23/13Z 23/14Z 23/15Z 23/16Z 23/17Z 23/18Z 23/19Z 23/20Z 23/21Z 23/22Z 23/23Z 24/00Z>>
Type OBS PRVL PRVL PRVL PRVL PRVL PRVL PRVL PRVL PRVL PRVL PRVL PRVL PRVL
VIS 10 >6 >6 >6 >6 >6 >6 >6 >6 >6 >6 >6 >6 >6
CIG -- -- -- -- -- -- -- -- -- -- -- -- -- --
Cover CLR SKC SKC SKC SKC SKC SKC SKC SKC SKC SKC SKC SKC SKC
FltCat VFR VFR VFR VFR VFR VFR VFR VFR VFR VFR VFR VFR VFR VFR
WX -- -- -- -- -- -- -- -- -- -- -- -- -- --
WDir 300 330 330 330 330 330 220 220 220 220 220 220 220 220
WSpd 4 8 8 8 8 8 9 9 9 9 9 9 9 9
WGst -- -- -- -- -- -- -- -- -- -- -- -- -- --
Raw TAF
KBDR 230830Z 2309/2406 33008KT P6SM SKC
  FM231700 22009KT P6SM SKC
  FM240100 VRB05KT P6SM SKC


Raw METAR
KBDR 231052Z 30004KT 10SM CLR 14/09 A3010 RMK AO2 SLP191 T01440094
KBDR 230952Z AUTO 00000KT 10SM CLR 13/08 A3007 RMK AO2 SLP181 T01280083
KBDR 230852Z AUTO 31007KT 10SM BKN060 13/09 A3003 RMK AO2 SLP169 T01330089 53027

METAR Board
Radar Display
Forecast Discussion
For situational awareness. Not to be used for flight planning purposes.